Portada
METAR-TAF:

METAR-TAF

Aeropuertos :

Ciudad de Kuwait, Kuwait

Aeropuerto Internacional de Kuwait

latitud: 29-13N, longitud: 047-59E, altitud: 55 m

Observación

El informe se hizo hace 15 minutos, a las 11:00 UTC
Viento 14 kt del norte-noreste
Temperatura 45°C
Humedad 8%
Presión 1005 hPa
Visibilidad 10 km o más
sin nubes por debajo de 1500 m y sin presencia de cumulonimbus.

METAR: OKBK 291100Z 02014KT CAVOK 45/04 Q1005 NOSIG

Hora: 14:15 (11:15 UTC)

Pronóstico

El informe se hizo hace 6 horas y 30 minutos, a las 04:45 UTC
Pronóstico válido del 29 a las 06 UTC al 30 a las 12 UTC
Viento 12 kt del norte con ráfagas de 25 kt
Visibilidad: 6000 m
Temporalmente
del 29 a las 06 UTC al 29 a las 15 UTC
Visibilidad: 3000 m
Ventisca alta de polvo

TAF: OKBK 290445Z 2906/3012 35012G25KT 6000 NSC TEMPO 2906/2915 3000 BLDU

Observaciones y pronósticos meteorológicos de más de 4000 aeropuertos (mensajes METAR y TAF).

Los puntos amarillos y rojos representan las estaciones disponibles.

Ponga el ratón en el punto deseado para ver el nombre de la estación.

Haga clic para ver las observaciones y los pronósticos meteorológicos.

Para cambiar el mapa : haga clic en los botones verdes con una cruz de color negro para hacer un zoom, en el botón verde con un guión para alejar o en las flechas verdes para mapas adyacentes.


METAR-TAF: